Time,TemperatureF,DewpointF,PressureIn,WindDirection,WindDirectionDegrees,WindSpeedMPH,WindSpeedGustMPH,Humidity,HourlyPrecipIn,Conditions,Clouds,dailyrainin,SoftwareType,DateUTC
2018-01-22 00:03:00,28.0,24.1,30.11,West,270,2.7,-999.0,85,-99.99,,,0.00,,2018-01-22 07:03:00,
2018-01-22 00:08:00,28.2,24.3,30.11,West,270,3.2,-999.0,85,-99.99,,,0.00,,2018-01-22 07:08:00,
2018-01-22 00:13:00,28.6,24.7,30.11,WNW,292,4.2,-999.0,85,-99.99,,,0.00,,2018-01-22 07:13:00,
2018-01-22 00:18:00,28.8,24.9,30.11,West,270,3.2,-999.0,85,-99.99,,,0.00,,2018-01-22 07:18:00,
2018-01-22 00:23:00,28.9,25.0,30.11,West,270,2.7,-999.0,85,-99.99,,,0.00,,2018-01-22 07:23:00,
2018-01-22 00:29:00,28.9,25.0,30.11,West,270,0.0,-999.0,85,-99.99,,,0.00,,2018-01-22 07:29:00,
2018-01-22 00:39:00,28.8,24.9,30.11,West,270,1.7,-999.0,85,-99.99,,,0.00,,2018-01-22 07:39:00,
2018-01-22 00:44:00,28.8,24.9,30.11,WSW,247,2.2,-999.0,85,-99.99,,,0.00,,2018-01-22 07:44:00,
2018-01-22 00:49:00,28.8,24.9,30.11,WSW,247,2.7,-999.0,85,-99.99,,,0.00,,2018-01-22 07:49:00,
2018-01-22 00:54:00,28.4,24.5,30.11,West,270,2.7,-999.0,85,-99.99,,,0.00,,2018-01-22 07:54:00,
2018-01-22 00:59:00,28.6,24.7,30.11,WSW,247,4.2,-999.0,85,-99.99,,,0.00,,2018-01-22 07:59:00,
2018-01-22 01:05:00,29.5,25.5,30.11,West,270,4.2,-999.0,85,-99.99,,,0.00,,2018-01-22 08:05:00,
2018-01-22 01:11:00,29.5,25.5,30.11,West,270,2.7,-999.0,85,-99.99,,,0.00,,2018-01-22 08:11:00,
2018-01-22 01:17:00,28.9,25.0,30.11,West,270,3.7,-999.0,85,-99.99,,,0.00,,2018-01-22 08:17:00,
2018-01-22 01:22:00,28.8,24.9,30.11,West,270,2.7,-999.0,85,-99.99,,,0.00,,2018-01-22 08:22:00,
2018-01-22 01:38:00,29.1,25.2,30.11,West,270,2.7,-999.0,85,-99.99,,,0.00,,2018-01-22 08:38:00,
2018-01-22 01:43:00,29.1,25.2,30.11,West,270,4.2,-999.0,85,-99.99,,,0.00,,2018-01-22 08:43:00,
2018-01-22 01:49:00,29.1,25.2,30.11,WSW,247,4.2,-999.0,85,-99.99,,,0.00,,2018-01-22 08:49:00,
2018-01-22 01:55:00,29.1,25.2,30.11,WSW,247,4.2,-999.0,85,-99.99,,,0.00,,2018-01-22 08:55:00,
2018-01-22 02:00:00,28.8,24.9,30.12,West,270,4.2,-999.0,85,-99.99,,,0.00,,2018-01-22 09:00:00,
2018-01-22 02:05:00,28.4,24.5,30.12,WSW,247,4.2,-999.0,85,-99.99,,,0.00,,2018-01-22 09:05:00,
2018-01-22 02:10:00,28.9,25.2,30.12,West,270,3.2,-999.0,86,-99.99,,,0.00,,2018-01-22 09:10:00,
2018-01-22 02:16:00,29.3,25.6,30.12,WSW,247,3.2,-999.0,86,-99.99,,,0.00,,2018-01-22 09:16:00,
2018-01-22 02:21:00,30.6,26.9,30.12,WSW,247,3.7,-999.0,86,-99.99,,,0.00,,2018-01-22 09:21:00,
2018-01-22 02:26:00,30.7,26.7,30.12,East,90,3.2,-999.0,85,-99.99,,,0.00,,2018-01-22 09:26:00,
2018-01-22 02:37:00,30.0,26.0,30.13,West,270,2.7,-999.0,85,-99.99,,,0.00,,2018-01-22 09:37:00,
2018-01-22 02:42:00,29.8,25.8,30.13,West,270,4.2,-999.0,85,-99.99,,,0.00,,2018-01-22 09:42:00,
2018-01-22 02:48:00,29.8,25.8,30.13,West,270,3.2,-999.0,85,-99.99,,,0.00,,2018-01-22 09:48:00,
2018-01-22 02:53:00,30.4,26.4,30.13,West,270,3.2,-999.0,85,-99.99,,,0.00,,2018-01-22 09:53:00,
2018-01-22 02:58:00,30.2,26.2,30.13,West,270,4.2,-999.0,85,-99.99,,,0.00,,2018-01-22 09:58:00,
2018-01-22 03:05:00,30.0,26.0,30.13,West,270,3.2,-999.0,85,-99.99,,,0.00,,2018-01-22 10:05:00,
2018-01-22 03:10:00,29.8,25.8,30.14,West,270,3.7,-999.0,85,-99.99,,,0.00,,2018-01-22 10:10:00,
2018-01-22 03:15:00,29.7,25.7,30.14,West,270,3.7,-999.0,85,-99.99,,,0.00,,2018-01-22 10:15:00,
2018-01-22 03:21:00,29.5,25.5,30.14,West,270,3.7,-999.0,85,-99.99,,,0.00,,2018-01-22 10:21:00,
2018-01-22 03:26:00,29.5,25.5,30.14,West,270,3.2,-999.0,85,-99.99,,,0.00,,2018-01-22 10:26:00,
2018-01-22 03:37:00,28.4,24.5,30.14,West,270,5.3,-999.0,85,-99.99,,,0.00,,2018-01-22 10:37:00,
2018-01-22 03:48:00,28.2,24.6,30.15,NW,315,3.7,-999.0,86,-99.99,,,0.00,,2018-01-22 10:48:00,
2018-01-22 03:53:00,28.4,24.7,30.15,West,270,4.2,-999.0,86,-99.99,,,0.00,,2018-01-22 10:53:00,
2018-01-22 03:58:00,28.4,24.7,30.15,WSW,247,4.7,-999.0,86,-99.99,,,0.00,,2018-01-22 10:58:00,
2018-01-22 04:04:00,27.9,24.3,30.15,West,270,3.2,-999.0,86,-99.99,,,0.00,,2018-01-22 11:04:00,
2018-01-22 04:09:00,28.2,24.6,30.15,SW,225,4.2,-999.0,86,-99.99,,,0.00,,2018-01-22 11:09:00,
2018-01-22 04:25:00,27.9,24.3,30.15,South,180,0.0,-999.0,86,-99.99,,,0.00,,2018-01-22 11:25:00,
2018-01-22 04:30:00,27.7,24.1,30.15,West,270,2.2,-999.0,86,-99.99,,,0.00,,2018-01-22 11:30:00,
2018-01-22 04:35:00,27.7,24.1,30.15,WSW,247,3.2,-999.0,86,-99.99,,,0.00,,2018-01-22 11:35:00,
2018-01-22 04:41:00,27.9,24.3,30.15,SW,225,0.0,-999.0,86,-99.99,,,0.00,,2018-01-22 11:41:00,
2018-01-22 04:46:00,28.0,24.4,30.15,West,270,1.7,-999.0,86,-99.99,,,0.00,,2018-01-22 11:46:00,
2018-01-22 04:51:00,28.2,24.6,30.15,West,270,1.7,-999.0,86,-99.99,,,0.00,,2018-01-22 11:51:00,
2018-01-22 04:56:00,28.4,24.7,30.15,West,270,4.7,-999.0,86,-99.99,,,0.00,,2018-01-22 11:56:00,
2018-01-22 05:01:00,28.0,24.4,30.15,West,270,4.7,-999.0,86,-99.99,,,0.00,,2018-01-22 12:01:00,
2018-01-22 05:07:00,27.9,24.3,30.15,West,270,5.3,-999.0,86,-99.99,,,0.00,,2018-01-22 12:07:00,
2018-01-22 05:12:00,27.5,23.9,30.15,West,270,4.7,-999.0,86,-99.99,,,0.00,,2018-01-22 12:12:00,
2018-01-22 05:17:00,28.0,24.4,30.15,West,270,3.7,-999.0,86,-99.99,,,0.00,,2018-01-22 12:17:00,
2018-01-22 05:22:00,28.6,24.9,30.15,West,270,3.7,-999.0,86,-99.99,,,0.00,,2018-01-22 12:22:00,
2018-01-22 05:28:00,28.8,25.1,30.15,WNW,292,4.2,-999.0,86,-99.99,,,0.00,,2018-01-22 12:28:00,
2018-01-22 05:39:00,28.2,24.6,30.15,West,270,2.7,-999.0,86,-99.99,,,0.00,,2018-01-22 12:39:00,
2018-01-22 05:44:00,27.9,24.3,30.15,WSW,247,3.2,-999.0,86,-99.99,,,0.00,,2018-01-22 12:44:00,
2018-01-22 05:49:00,27.5,23.9,30.15,North,360,2.7,-999.0,86,-99.99,,,0.00,,2018-01-22 12:49:00,
2018-01-22 05:54:00,27.3,23.7,30.15,SSW,202,0.0,-999.0,86,-99.99,,,0.00,,2018-01-22 12:54:00,
2018-01-22 05:59:00,27.0,23.4,30.16,SW,225,0.0,-999.0,86,-99.99,,,0.00,,2018-01-22 12:59:00,
2018-01-22 06:04:00,26.6,23.0,30.16,SSW,202,0.0,-999.0,86,-99.99,,,0.00,,2018-01-22 13:04:00,
2018-01-22 06:09:00,26.2,22.6,30.16,NNE,22,2.2,-999.0,86,-99.99,,,0.00,,2018-01-22 13:09:00,
2018-01-22 06:15:00,26.1,22.5,30.16,West,270,1.1,-999.0,86,-99.99,,,0.00,,2018-01-22 13:15:00,
2018-01-22 06:20:00,26.1,22.5,30.16,SW,225,2.2,-999.0,86,-99.99,,,0.00,,2018-01-22 13:20:00,
2018-01-22 06:25:00,25.9,22.6,30.16,West,270,3.2,-999.0,87,-99.99,,,0.00,,2018-01-22 13:25:00,
2018-01-22 06:30:00,25.9,22.6,30.16,West,270,4.2,-999.0,87,-99.99,,,0.00,,2018-01-22 13:30:00,
2018-01-22 06:35:00,26.1,22.8,30.16,West,270,2.7,-999.0,87,-99.99,,,0.00,,2018-01-22 13:35:00,
2018-01-22 06:47:00,26.1,22.8,30.17,West,270,3.7,-999.0,87,-99.99,,,0.00,,2018-01-22 13:47:00,
2018-01-22 06:52:00,25.5,22.2,30.17,West,270,4.7,-999.0,87,-99.99,,,0.00,,2018-01-22 13:52:00,
2018-01-22 07:02:00,25.3,22.0,30.17,West,270,4.7,-999.0,87,-99.99,,,0.00,,2018-01-22 14:02:00,
2018-01-22 07:07:00,24.8,21.2,30.17,WNW,292,4.2,-999.0,86,-99.99,,,0.00,,2018-01-22 14:07:00,
2018-01-22 07:12:00,25.2,21.9,30.17,West,270,4.7,-999.0,87,-99.99,,,0.00,,2018-01-22 14:12:00,
2018-01-22 07:18:00,24.8,21.5,30.17,WNW,292,3.7,-999.0,87,-99.99,,,0.00,,2018-01-22 14:18:00,
2018-01-22 07:24:00,25.3,22.0,30.18,West,270,4.7,-999.0,87,-99.99,,,0.00,,2018-01-22 14:24:00,
2018-01-22 07:29:00,23.9,20.3,30.18,West,270,3.7,-999.0,86,-99.99,,,0.00,,2018-01-22 14:29:00,
2018-01-22 07:34:00,24.3,21.0,30.18,West,270,5.3,-999.0,87,-99.99,,,0.00,,2018-01-22 14:34:00,
2018-01-22 07:40:00,23.5,20.2,30.18,West,270,4.7,-999.0,87,-99.99,,,0.00,,2018-01-22 14:40:00,
2018-01-22 07:45:00,23.5,20.2,30.18,West,270,4.2,-999.0,87,-99.99,,,0.00,,2018-01-22 14:45:00,
2018-01-22 07:50:00,23.9,20.6,30.18,West,270,3.7,-999.0,87,-99.99,,,0.00,,2018-01-22 14:50:00,
2018-01-22 07:55:00,24.4,21.1,30.18,WNW,292,5.3,-999.0,87,-99.99,,,0.00,,2018-01-22 14:55:00,
2018-01-22 08:00:00,23.7,20.1,30.18,West,270,5.3,-999.0,86,-99.99,,,0.00,,2018-01-22 15:00:00,
2018-01-22 08:05:00,24.1,20.8,30.18,WNW,292,4.2,-999.0,87,-99.99,,,0.00,,2018-01-22 15:05:00,
2018-01-22 08:11:00,24.1,20.8,30.18,West,270,4.7,-999.0,87,-99.99,,,0.00,,2018-01-22 15:11:00,
2018-01-22 08:16:00,23.9,20.6,30.18,West,270,4.2,-999.0,87,-99.99,,,0.00,,2018-01-22 15:16:00,
2018-01-22 08:22:00,24.1,20.8,30.18,West,270,4.7,-999.0,87,-99.99,,,0.00,,2018-01-22 15:22:00,
2018-01-22 08:27:00,23.9,20.6,30.19,West,270,4.2,-999.0,87,-99.99,,,0.00,,2018-01-22 15:27:00,
2018-01-22 08:32:00,23.9,20.6,30.19,West,270,4.2,-999.0,87,-99.99,,,0.00,,2018-01-22 15:32:00,
2018-01-22 08:37:00,24.1,20.8,30.19,West,270,5.3,-999.0,87,-99.99,,,0.00,,2018-01-22 15:37:00,
2018-01-22 08:42:00,23.9,20.6,30.19,West,270,4.2,-999.0,87,-99.99,,,0.00,,2018-01-22 15:42:00,
2018-01-22 08:48:00,23.2,19.9,30.20,West,270,4.2,-999.0,87,-99.99,,,0.00,,2018-01-22 15:48:00,
2018-01-22 08:53:00,23.2,19.9,30.20,West,270,3.7,-999.0,87,-99.99,,,0.00,,2018-01-22 15:53:00,
2018-01-22 08:59:00,23.5,20.2,30.20,West,270,4.2,-999.0,87,-99.99,,,0.00,,2018-01-22 15:59:00,
2018-01-22 09:04:00,23.0,19.7,30.20,West,270,3.7,-999.0,87,-99.99,,,0.00,,2018-01-22 16:04:00,
2018-01-22 09:09:00,23.4,20.1,30.20,West,270,4.2,-999.0,87,-99.99,,,0.00,,2018-01-22 16:09:00,
2018-01-22 09:14:00,23.4,20.1,30.20,WNW,292,5.3,-999.0,87,-99.99,,,0.00,,2018-01-22 16:14:00,
2018-01-22 09:20:00,23.4,20.1,30.20,West,270,5.3,-999.0,87,-99.99,,,0.00,,2018-01-22 16:20:00,
2018-01-22 09:25:00,23.9,20.6,30.20,West,270,4.7,-999.0,87,-99.99,,,0.00,,2018-01-22 16:25:00,
2018-01-22 09:30:00,24.3,21.0,30.20,West,270,3.7,-999.0,87,-99.99,,,0.00,,2018-01-22 16:30:00,
2018-01-22 09:35:00,25.2,21.9,30.20,West,270,3.7,-999.0,87,-99.99,,,0.00,,2018-01-22 16:35:00,
2018-01-22 09:41:00,24.8,21.2,30.20,West,270,4.2,-999.0,86,-99.99,,,0.00,,2018-01-22 16:41:00,
2018-01-22 09:46:00,24.8,21.2,30.20,WNW,292,3.7,-999.0,86,-99.99,,,0.00,,2018-01-22 16:46:00,
2018-01-22 09:51:00,25.5,22.2,30.20,West,270,3.7,-999.0,87,-99.99,,,0.00,,2018-01-22 16:51:00,
2018-01-22 09:56:00,26.1,22.5,30.20,West,270,3.7,-999.0,86,-99.99,,,0.00,,2018-01-22 16:56:00,
2018-01-22 10:01:00,25.3,21.7,30.21,West,270,3.7,-999.0,86,-99.99,,,0.00,,2018-01-22 17:01:00,
2018-01-22 10:06:00,25.7,22.1,30.21,West,270,4.2,-999.0,86,-99.99,,,0.00,,2018-01-22 17:06:00,
2018-01-22 10:12:00,25.5,21.9,30.21,West,270,4.2,-999.0,86,-99.99,,,0.00,,2018-01-22 17:12:00,
2018-01-22 10:18:00,26.2,22.6,30.21,West,270,4.2,-999.0,86,-99.99,,,0.00,,2018-01-22 17:18:00,
2018-01-22 10:23:00,27.0,23.4,30.21,WSW,247,3.7,-999.0,86,-99.99,,,0.00,,2018-01-22 17:23:00,
2018-01-22 10:29:00,27.1,23.5,30.21,West,270,3.2,-999.0,86,-99.99,,,0.00,,2018-01-22 17:29:00,
2018-01-22 10:34:00,27.5,23.6,30.21,WSW,247,2.2,-999.0,85,-99.99,,,0.00,,2018-01-22 17:34:00,
2018-01-22 10:39:00,27.9,24.0,30.21,West,270,2.7,-999.0,85,-99.99,,,0.00,,2018-01-22 17:39:00,
2018-01-22 10:44:00,28.0,24.1,30.21,West,270,2.7,-999.0,85,-99.99,,,0.00,,2018-01-22 17:44:00,
2018-01-22 10:49:00,30.7,25.9,30.22,SW,225,1.7,-999.0,82,-99.99,,,0.00,,2018-01-22 17:49:00,
2018-01-22 10:54:00,31.6,26.4,30.22,SW,225,0.0,-999.0,81,-99.99,,,0.00,,2018-01-22 17:54:00,
2018-01-22 11:00:00,29.7,25.2,30.22,West,270,1.7,-999.0,83,-99.99,,,0.00,,2018-01-22 18:00:00,
2018-01-22 11:05:00,31.8,26.3,30.22,WSW,247,1.1,-999.0,80,-99.99,,,0.00,,2018-01-22 18:05:00,
2018-01-22 11:10:00,32.4,26.9,30.22,NE,45,5.3,-999.0,80,-99.99,,,0.00,,2018-01-22 18:10:00,
2018-01-22 11:15:00,32.2,26.7,30.22,ENE,67,1.1,-999.0,80,-99.99,,,0.00,,2018-01-22 18:15:00,
2018-01-22 11:20:00,32.4,26.9,30.22,WSW,247,0.0,-999.0,80,-99.99,,,0.00,,2018-01-22 18:20:00,
2018-01-22 11:25:00,33.3,27.2,30.22,ESE,112,2.2,-999.0,78,-99.99,,,0.00,,2018-01-22 18:25:00,
2018-01-22 11:31:00,34.5,27.4,30.22,South,180,1.7,-999.0,75,-99.99,,,0.00,,2018-01-22 18:31:00,
2018-01-22 11:36:00,34.9,27.5,30.22,SE,135,0.0,-999.0,74,-99.99,,,0.00,,2018-01-22 18:36:00,
2018-01-22 11:41:00,35.8,27.3,30.22,SW,225,2.7,-999.0,71,-99.99,,,0.00,,2018-01-22 18:41:00,
2018-01-22 11:46:00,36.7,26.8,30.22,South,180,1.7,-999.0,67,-99.99,,,0.00,,2018-01-22 18:46:00,
2018-01-22 11:51:00,37.8,26.7,30.21,SW,225,5.3,-999.0,64,-99.99,,,0.00,,2018-01-22 18:51:00,
2018-01-22 11:56:00,38.3,26.8,30.21,SSW,202,4.7,-999.0,63,-99.99,,,0.00,,2018-01-22 18:56:00,
2018-01-22 12:01:00,38.5,26.6,30.21,WSW,247,2.7,-999.0,62,-99.99,,,0.00,,2018-01-22 19:01:00,
2018-01-22 12:06:00,38.8,26.9,30.21,SSW,202,2.7,-999.0,62,-99.99,,,0.00,,2018-01-22 19:06:00,
2018-01-22 12:11:00,39.2,26.9,30.21,SW,225,4.7,-999.0,61,-99.99,,,0.00,,2018-01-22 19:11:00,
2018-01-22 12:16:00,38.1,27.0,30.21,ESE,112,1.1,-999.0,64,-99.99,,,0.00,,2018-01-22 19:16:00,
2018-01-22 12:22:00,37.2,28.0,30.21,SSE,157,0.0,-999.0,69,-99.99,,,0.00,,2018-01-22 19:22:00,
2018-01-22 12:28:00,37.0,28.1,30.21,ESE,112,2.2,-999.0,70,-99.99,,,0.00,,2018-01-22 19:28:00,
2018-01-22 12:33:00,37.2,26.9,30.21,SSE,157,3.7,-999.0,66,-99.99,,,0.00,,2018-01-22 19:33:00,
2018-01-22 12:38:00,37.9,26.8,30.21,South,180,5.8,-999.0,64,-99.99,,,0.00,,2018-01-22 19:38:00,
2018-01-22 12:43:00,38.1,27.0,30.21,North,360,0.0,-999.0,64,-99.99,,,0.00,,2018-01-22 19:43:00,
2018-01-22 12:49:00,38.5,27.4,30.21,NE,45,0.0,-999.0,64,-99.99,,,0.00,,2018-01-22 19:49:00,
2018-01-22 12:54:00,38.1,28.1,30.21,South,180,3.2,-999.0,67,-99.99,,,0.00,,2018-01-22 19:54:00,
2018-01-22 12:59:00,40.1,27.7,30.21,West,270,1.7,-999.0,61,-99.99,,,0.00,,2018-01-22 19:59:00,
2018-01-22 13:04:00,39.7,27.3,30.21,SSW,202,2.2,-999.0,61,-99.99,,,0.00,,2018-01-22 20:04:00,
2018-01-22 13:10:00,39.7,28.5,30.21,SW,225,4.7,-999.0,64,-99.99,,,0.00,,2018-01-22 20:10:00,
2018-01-22 13:15:00,37.6,28.3,30.21,West,270,3.2,-999.0,69,-99.99,,,0.00,,2018-01-22 20:15:00,
2018-01-22 13:20:00,37.8,28.5,30.21,South,180,3.7,-999.0,69,-99.99,,,0.00,,2018-01-22 20:20:00,
2018-01-22 13:25:00,38.1,28.8,30.20,WSW,247,2.2,-999.0,69,-99.99,,,0.00,,2018-01-22 20:25:00,
2018-01-22 13:31:00,37.8,27.8,30.20,West,270,1.1,-999.0,67,-99.99,,,0.00,,2018-01-22 20:31:00,
2018-01-22 13:36:00,37.8,28.2,30.20,NE,45,0.0,-999.0,68,-99.99,,,0.00,,2018-01-22 20:36:00,
2018-01-22 13:41:00,38.1,27.7,30.20,West,270,2.7,-999.0,66,-99.99,,,0.00,,2018-01-22 20:41:00,
2018-01-22 13:46:00,36.5,27.3,30.20,WSW,247,2.7,-999.0,69,-99.99,,,0.00,,2018-01-22 20:46:00,
2018-01-22 13:51:00,37.8,27.8,30.20,NE,45,2.7,-999.0,67,-99.99,,,0.00,,2018-01-22 20:51:00,
2018-01-22 13:57:00,38.5,27.4,30.20,WNW,292,2.7,-999.0,64,-99.99,,,0.00,,2018-01-22 20:57:00,
2018-01-22 14:03:00,38.7,27.6,30.20,West,270,3.7,-999.0,64,-99.99,,,0.00,,2018-01-22 21:03:00,
2018-01-22 14:08:00,39.0,27.5,30.20,WSW,247,2.2,-999.0,63,-99.99,,,0.00,,2018-01-22 21:08:00,
2018-01-22 14:13:00,38.7,27.2,30.20,West,270,1.7,-999.0,63,-99.99,,,0.00,,2018-01-22 21:13:00,
2018-01-22 14:18:00,37.8,28.2,30.20,SSW,202,3.2,-999.0,68,-99.99,,,0.00,,2018-01-22 21:18:00,
2018-01-22 14:23:00,37.4,28.2,30.20,SSW,202,2.2,-999.0,69,-99.99,,,0.00,,2018-01-22 21:23:00,
2018-01-22 14:28:00,38.7,28.3,30.20,South,180,0.0,-999.0,66,-99.99,,,0.00,,2018-01-22 21:28:00,
2018-01-22 14:33:00,38.3,27.9,30.20,North,360,2.2,-999.0,66,-99.99,,,0.00,,2018-01-22 21:33:00,
2018-01-22 14:38:00,38.3,27.9,30.20,NE,45,3.7,-999.0,66,-99.99,,,0.00,,2018-01-22 21:38:00,
2018-01-22 14:43:00,39.0,27.9,30.20,NNE,22,2.2,-999.0,64,-99.99,,,0.00,,2018-01-22 21:43:00,
2018-01-22 14:48:00,39.0,27.9,30.20,SE,135,0.0,-999.0,64,-99.99,,,0.00,,2018-01-22 21:48:00,
2018-01-22 14:53:00,39.9,25.9,30.20,WSW,247,3.7,-999.0,57,-99.99,,,0.00,,2018-01-22 21:53:00,
2018-01-22 14:58:00,39.9,26.7,30.20,WSW,247,4.7,-999.0,59,-99.99,,,0.00,,2018-01-22 21:58:00,
2018-01-22 15:03:00,39.9,27.1,30.20,SW,225,2.2,-999.0,60,-99.99,,,0.00,,2018-01-22 22:03:00,
2018-01-22 15:09:00,39.6,28.0,30.20,WSW,247,2.2,-999.0,63,-99.99,,,0.00,,2018-01-22 22:09:00,
2018-01-22 15:14:00,39.0,27.5,30.21,SW,225,5.8,-999.0,63,-99.99,,,0.00,,2018-01-22 22:14:00,
2018-01-22 15:19:00,39.2,27.3,30.21,SSW,202,4.2,-999.0,62,-99.99,,,0.00,,2018-01-22 22:19:00,
2018-01-22 15:24:00,39.4,27.8,30.21,West,270,3.2,-999.0,63,-99.99,,,0.00,,2018-01-22 22:24:00,
2018-01-22 15:29:00,39.0,27.5,30.21,South,180,2.7,-999.0,63,-99.99,,,0.00,,2018-01-22 22:29:00,
2018-01-22 15:34:00,38.5,28.1,30.22,SSW,202,1.7,-999.0,66,-99.99,,,0.00,,2018-01-22 22:34:00,
2018-01-22 15:39:00,38.1,27.7,30.22,WSW,247,2.7,-999.0,66,-99.99,,,0.00,,2018-01-22 22:39:00,
2018-01-22 15:45:00,39.0,27.9,30.22,South,180,4.7,-999.0,64,-99.99,,,0.00,,2018-01-22 22:45:00,
2018-01-22 15:50:00,39.2,27.7,30.21,SSW,202,1.7,-999.0,63,-99.99,,,0.00,,2018-01-22 22:50:00,
2018-01-22 15:55:00,38.7,27.6,30.21,SSE,157,3.2,-999.0,64,-99.99,,,0.00,,2018-01-22 22:55:00,
2018-01-22 16:00:00,38.1,27.0,30.22,WSW,247,3.7,-999.0,64,-99.99,,,0.00,,2018-01-22 23:00:00,
2018-01-22 16:06:00,37.9,25.6,30.22,SSW,202,4.7,-999.0,61,-99.99,,,0.00,,2018-01-22 23:06:00,
2018-01-22 16:12:00,37.6,26.1,30.22,West,270,3.2,-999.0,63,-99.99,,,0.00,,2018-01-22 23:12:00,
2018-01-22 16:17:00,37.6,25.4,30.22,SSW,202,1.1,-999.0,61,-99.99,,,0.00,,2018-01-22 23:17:00,
2018-01-22 16:22:00,37.6,25.8,30.22,WSW,247,3.2,-999.0,62,-99.99,,,0.00,,2018-01-22 23:22:00,
2018-01-22 16:27:00,37.2,25.8,30.22,WSW,247,2.2,-999.0,63,-99.99,,,0.00,,2018-01-22 23:27:00,
2018-01-22 16:33:00,36.9,25.5,30.22,South,180,3.2,-999.0,63,-99.99,,,0.00,,2018-01-22 23:33:00,
2018-01-22 16:39:00,36.7,25.7,30.22,South,180,3.7,-999.0,64,-99.99,,,0.00,,2018-01-22 23:39:00,
2018-01-22 16:44:00,36.7,25.3,30.22,SW,225,2.2,-999.0,63,-99.99,,,0.00,,2018-01-22 23:44:00,
2018-01-22 16:49:00,36.3,24.9,30.23,SSW,202,2.2,-999.0,63,-99.99,,,0.00,,2018-01-22 23:49:00,
2018-01-22 16:54:00,35.6,25.4,30.23,SSW,202,1.1,-999.0,66,-99.99,,,0.00,,2018-01-22 23:54:00,
2018-01-22 17:00:00,35.4,24.8,30.23,SW,225,2.7,-999.0,65,-99.99,,,0.00,,2018-01-23 00:00:00,
2018-01-22 17:05:00,35.1,24.9,30.23,SSW,202,1.1,-999.0,66,-99.99,,,0.00,,2018-01-23 00:05:00,
2018-01-22 17:10:00,34.7,24.5,30.23,SSW,202,2.2,-999.0,66,-99.99,,,0.00,,2018-01-23 00:10:00,
2018-01-22 17:15:00,34.7,24.9,30.23,WSW,247,4.7,-999.0,67,-99.99,,,0.00,,2018-01-23 00:15:00,
2018-01-22 17:20:00,34.7,25.2,30.23,SSW,202,1.7,-999.0,68,-99.99,,,0.00,,2018-01-23 00:20:00,
2018-01-22 17:26:00,34.0,25.2,30.23,WSW,247,2.2,-999.0,70,-99.99,,,0.00,,2018-01-23 00:26:00,
2018-01-22 17:37:00,32.2,24.5,30.24,West,270,2.7,-999.0,73,-99.99,,,0.00,,2018-01-23 00:37:00,
2018-01-22 17:42:00,31.6,24.3,30.24,WSW,247,3.2,-999.0,74,-99.99,,,0.00,,2018-01-23 00:42:00,
2018-01-22 17:47:00,30.9,24.5,30.24,West,270,2.7,-999.0,77,-99.99,,,0.00,,2018-01-23 00:47:00,
2018-01-22 17:52:00,30.7,24.3,30.24,West,270,3.2,-999.0,77,-99.99,,,0.00,,2018-01-23 00:52:00,
2018-01-22 17:57:00,30.6,24.6,30.24,WSW,247,1.7,-999.0,78,-99.99,,,0.00,,2018-01-23 00:57:00,
2018-01-22 18:03:00,30.6,24.6,30.24,WSW,247,2.2,-999.0,78,-99.99,,,0.00,,2018-01-23 01:03:00,
2018-01-22 18:08:00,30.9,24.8,30.24,West,270,0.0,-999.0,78,-99.99,,,0.00,,2018-01-23 01:08:00,
2018-01-22 18:14:00,30.9,24.8,30.24,ENE,67,0.0,-999.0,78,-99.99,,,0.00,,2018-01-23 01:14:00,
2018-01-22 18:19:00,31.3,24.9,30.24,WSW,247,1.7,-999.0,77,-99.99,,,0.00,,2018-01-23 01:19:00,
2018-01-22 18:25:00,31.5,25.1,30.25,NW,315,3.2,-999.0,77,-99.99,,,0.00,,2018-01-23 01:25:00,
2018-01-22 18:36:00,31.3,24.9,30.24,SW,225,4.2,-999.0,77,-99.99,,,0.00,,2018-01-23 01:36:00,
2018-01-22 18:47:00,31.1,25.3,30.25,West,270,2.2,-999.0,79,-99.99,,,0.00,,2018-01-23 01:47:00,
2018-01-22 18:52:00,30.7,25.0,30.25,West,270,2.7,-999.0,79,-99.99,,,0.00,,2018-01-23 01:52:00,
2018-01-22 18:58:00,30.6,25.2,30.25,WNW,292,2.7,-999.0,80,-99.99,,,0.00,,2018-01-23 01:58:00,
2018-01-22 19:04:00,30.4,25.0,30.25,SW,225,1.7,-999.0,80,-99.99,,,0.00,,2018-01-23 02:04:00,
2018-01-22 19:09:00,30.0,24.9,30.25,West,270,2.2,-999.0,81,-99.99,,,0.00,,2018-01-23 02:09:00,
2018-01-22 19:19:00,29.7,24.9,30.25,WSW,247,2.2,-999.0,82,-99.99,,,0.00,,2018-01-23 02:19:00,
2018-01-22 19:24:00,29.5,24.7,30.25,West,270,1.7,-999.0,82,-99.99,,,0.00,,2018-01-23 02:24:00,
2018-01-22 19:29:00,29.5,24.7,30.25,West,270,2.7,-999.0,82,-99.99,,,0.00,,2018-01-23 02:29:00,
2018-01-22 19:34:00,29.7,24.9,30.25,West,270,2.2,-999.0,82,-99.99,,,0.00,,2018-01-23 02:34:00,
2018-01-22 19:39:00,29.7,24.9,30.25,WSW,247,2.7,-999.0,82,-99.99,,,0.00,,2018-01-23 02:39:00,
2018-01-22 19:44:00,29.7,24.9,30.25,West,270,2.7,-999.0,82,-99.99,,,0.00,,2018-01-23 02:44:00,
2018-01-22 19:49:00,29.7,24.9,30.25,West,270,2.7,-999.0,82,-99.99,,,0.00,,2018-01-23 02:49:00,
2018-01-22 19:54:00,29.8,25.0,30.25,WSW,247,2.7,-999.0,82,-99.99,,,0.00,,2018-01-23 02:54:00,
2018-01-22 20:00:00,29.8,25.0,30.26,SW,225,0.0,-999.0,82,-99.99,,,0.00,,2018-01-23 03:00:00,
2018-01-22 20:05:00,29.7,24.9,30.26,West,270,0.0,-999.0,82,-99.99,,,0.00,,2018-01-23 03:05:00,
2018-01-22 20:10:00,29.7,25.2,30.26,West,270,2.7,-999.0,83,-99.99,,,0.00,,2018-01-23 03:10:00,
2018-01-22 20:15:00,29.5,25.0,30.26,West,270,3.2,-999.0,83,-99.99,,,0.00,,2018-01-23 03:15:00,
2018-01-22 20:20:00,29.3,25.1,30.26,West,270,2.7,-999.0,84,-99.99,,,0.00,,2018-01-23 03:20:00,
2018-01-22 20:25:00,29.3,25.1,30.27,West,270,2.7,-999.0,84,-99.99,,,0.00,,2018-01-23 03:25:00,
2018-01-22 20:36:00,29.1,24.9,30.26,West,270,3.2,-999.0,84,-99.99,,,0.00,,2018-01-23 03:36:00,
2018-01-22 20:41:00,29.1,24.9,30.26,West,270,2.2,-999.0,84,-99.99,,,0.00,,2018-01-23 03:41:00,
2018-01-22 20:47:00,28.9,24.7,30.27,West,270,2.7,-999.0,84,-99.99,,,0.00,,2018-01-23 03:47:00,
2018-01-22 20:52:00,28.8,24.6,30.27,West,270,3.7,-999.0,84,-99.99,,,0.00,,2018-01-23 03:52:00,
2018-01-22 20:57:00,28.6,24.4,30.27,West,270,3.7,-999.0,84,-99.99,,,0.00,,2018-01-23 03:57:00,
2018-01-22 21:02:00,28.4,24.5,30.26,West,270,3.2,-999.0,85,-99.99,,,0.00,,2018-01-23 04:02:00,
2018-01-22 21:07:00,28.0,24.1,30.26,West,270,3.2,-999.0,85,-99.99,,,0.00,,2018-01-23 04:07:00,
2018-01-22 21:12:00,27.5,23.6,30.26,West,270,4.2,-999.0,85,-99.99,,,0.00,,2018-01-23 04:12:00,
2018-01-22 21:18:00,28.0,24.1,30.26,West,270,3.2,-999.0,85,-99.99,,,0.00,,2018-01-23 04:18:00,
2018-01-22 21:29:00,30.4,25.9,30.27,SSW,202,4.2,-999.0,83,-99.99,,,0.00,,2018-01-23 04:29:00,
2018-01-22 21:39:00,31.1,26.2,30.27,SSW,202,3.2,-999.0,82,-99.99,,,0.00,,2018-01-23 04:39:00,
2018-01-22 21:46:00,30.9,26.1,30.27,WSW,247,2.2,-999.0,82,-99.99,,,0.00,,2018-01-23 04:46:00,